createdAt,value
2023-01-21T00:02:49.687Z,103089.38
2023-01-21T00:05:58.383Z,103088.09
2023-01-21T00:09:03.827Z,103095.56
2023-01-21T00:12:09.103Z,103107.81
2023-01-21T00:15:14.034Z,103112.50
2023-01-21T00:18:19.299Z,103111.97
2023-01-21T00:21:26.682Z,103111.22
2023-01-21T00:24:34.804Z,103128.00
2023-01-21T00:27:39.873Z,103128.06
2023-01-21T00:30:45.150Z,103134.47
2023-01-21T00:33:51.093Z,103126.63
2023-01-21T00:36:57.567Z,103133.56
2023-01-21T00:40:02.747Z,103131.09
2023-01-21T00:43:08.085Z,103130.19
2023-01-21T00:46:16.125Z,103138.00
2023-01-21T00:49:21.556Z,103149.03
2023-01-21T00:52:28.092Z,103142.84
2023-01-21T00:55:33.504Z,103147.28
2023-01-21T00:58:39.133Z,103154.91
2023-01-21T01:01:44.500Z,103165.13
2023-01-21T01:04:49.590Z,103171.16
2023-01-21T01:07:56.537Z,103168.22
2023-01-21T01:11:03.291Z,103171.44
2023-01-21T01:14:08.373Z,103157.16
2023-01-21T01:17:13.557Z,103172.28
2023-01-21T01:20:19.320Z,103182.38
2023-01-21T01:23:26.428Z,103187.50
2023-01-21T01:26:31.615Z,103194.56
2023-01-21T01:29:36.988Z,103195.31
2023-01-21T01:32:42.659Z,103186.88
2023-01-21T01:35:48.321Z,103196.88
2023-01-21T01:38:56.362Z,103203.38
2023-01-21T01:42:02.843Z,103206.78
2023-01-21T01:45:12.744Z,103205.53
2023-01-21T01:48:20.357Z,103213.81
2023-01-21T01:51:31.729Z,103214.16
2023-01-21T01:54:41.289Z,103212.69
2023-01-21T01:57:49.949Z,103213.94
2023-01-21T02:00:55.068Z,103226.94
2023-01-21T02:04:01.630Z,103227.31
2023-01-21T02:07:07.107Z,103231.00
2023-01-21T02:10:21.067Z,103229.09
2023-01-21T02:13:27.685Z,103234.13
2023-01-21T02:17:04.540Z,103242.00
2023-01-21T02:20:36.543Z,103250.97
2023-01-21T02:23:56.808Z,103245.34
2023-01-21T02:27:16.360Z,103251.28
2023-01-21T02:30:48.294Z,103254.16
2023-01-21T02:34:04.811Z,103260.63
2023-01-21T02:37:14.150Z,103275.47
2023-01-21T02:40:25.864Z,103276.06
2023-01-21T02:43:38.067Z,103281.50
2023-01-21T02:46:47.620Z,103286.53
2023-01-21T02:49:57.129Z,103290.06
2023-01-21T02:53:03.978Z,103300.53
2023-01-21T02:56:12.870Z,103313.25
2023-01-21T02:59:18.162Z,103314.72
2023-01-21T03:02:34.311Z,103312.75
2023-01-21T03:05:55.521Z,103316.97
2023-01-21T03:09:06.382Z,103325.69
2023-01-21T03:12:23.185Z,103314.19
2023-01-21T03:15:47.909Z,103330.06
2023-01-21T03:18:55.182Z,103332.94
2023-01-21T03:22:06.597Z,103337.34
2023-01-21T03:25:14.387Z,103335.41
2023-01-21T03:28:23.059Z,103348.16
2023-01-21T03:31:30.283Z,103351.59
2023-01-21T03:34:37.260Z,103336.75
2023-01-21T03:37:47.896Z,103349.91
2023-01-21T03:40:57.951Z,103356.41
2023-01-21T03:44:03.110Z,103357.50
2023-01-21T03:47:16.173Z,103358.72
2023-01-21T03:50:24.055Z,103357.72
2023-01-21T03:53:30.909Z,103365.53
2023-01-21T03:56:37.213Z,103368.94
2023-01-21T03:59:42.382Z,103380.56
2023-01-21T04:02:47.501Z,103379.09
2023-01-21T04:05:53.154Z,103400.31
2023-01-21T04:08:59.786Z,103393.41
2023-01-21T04:12:05.401Z,103405.34
2023-01-21T04:15:13.090Z,103401.25
2023-01-21T04:18:18.473Z,103416.00
2023-01-21T04:21:24.090Z,103426.09
2023-01-21T04:24:31.177Z,103420.75
2023-01-21T04:27:37.267Z,103425.28
2023-01-21T04:30:42.407Z,103436.03
2023-01-21T04:33:47.255Z,103454.50
2023-01-21T04:36:52.397Z,103446.75
2023-01-21T04:39:58.916Z,103451.00
2023-01-21T04:43:03.835Z,103452.09
2023-01-21T04:46:09.119Z,103452.94
2023-01-21T04:49:16.328Z,103443.28
2023-01-21T04:52:21.759Z,103448.63
2023-01-21T04:55:28.301Z,103458.22
2023-01-21T04:58:34.565Z,103462.25
2023-01-21T05:01:40.083Z,103462.06
2023-01-21T05:04:45.465Z,103466.91
2023-01-21T05:07:52.437Z,103467.50
2023-01-21T05:10:59.216Z,103469.25
2023-01-21T05:14:04.047Z,103480.25
2023-01-21T05:17:09.836Z,103482.09
2023-01-21T05:20:15.087Z,103485.56
2023-01-21T05:23:20.268Z,103499.34
2023-01-21T05:26:26.494Z,103505.09
2023-01-21T05:29:31.624Z,103502.25
2023-01-21T05:32:36.938Z,103501.97
2023-01-21T05:35:42.142Z,103513.16
2023-01-21T05:38:47.271Z,103511.81
2023-01-21T05:41:54.039Z,103516.38
2023-01-21T05:45:01.547Z,103532.31
2023-01-21T05:48:07.395Z,103525.47
2023-01-21T05:51:14.961Z,103535.06
2023-01-21T05:54:21.606Z,103534.31
2023-01-21T05:57:27.792Z,103534.94
2023-01-21T06:00:33.596Z,103536.97
2023-01-21T06:03:38.911Z,103531.66
2023-01-21T06:06:44.238Z,103541.06
2023-01-21T06:09:49.368Z,103536.75
2023-01-21T06:12:58.090Z,103549.72
2023-01-21T06:16:03.299Z,103556.84
2023-01-21T06:19:08.183Z,103565.78
2023-01-21T06:22:16.284Z,103566.88
2023-01-21T06:25:21.408Z,103573.09
2023-01-21T06:28:28.112Z,103578.47
2023-01-21T06:31:34.687Z,103588.06
2023-01-21T06:34:39.889Z,103587.53
2023-01-21T06:37:45.346Z,103597.34
2023-01-21T06:40:50.444Z,103595.34
2023-01-21T06:43:57.592Z,103598.63
2023-01-21T06:47:03.835Z,103602.22
2023-01-21T06:50:11.365Z,103601.97
2023-01-21T06:53:16.548Z,103593.94
2023-01-21T06:56:22.128Z,103604.31
2023-01-21T06:59:28.620Z,103597.94
2023-01-21T07:02:34.543Z,103607.56
2023-01-21T07:05:39.936Z,103614.38
2023-01-21T07:08:45.101Z,103618.19
2023-01-21T07:11:51.043Z,103617.41
2023-01-21T07:14:57.489Z,103629.63
2023-01-21T07:18:02.715Z,103638.13
2023-01-21T07:21:09.010Z,103634.50
2023-01-21T07:24:14.454Z,103638.84
2023-01-21T07:27:19.543Z,103649.25
2023-01-21T07:30:28.706Z,103639.34
2023-01-21T07:33:33.928Z,103638.81
2023-01-21T07:36:39.160Z,103645.88
2023-01-21T07:39:44.371Z,103656.50
2023-01-21T07:42:53.653Z,103646.41
2023-01-21T07:46:01.089Z,103653.25
2023-01-21T07:49:09.817Z,103672.28
2023-01-21T07:52:15.057Z,103680.69
2023-01-21T07:55:20.581Z,103687.09
2023-01-21T07:58:25.692Z,103669.25
2023-01-21T08:01:32.497Z,103672.75
2023-01-21T08:04:37.414Z,103682.69
2023-01-21T08:07:42.519Z,103695.13
2023-01-21T08:10:53.643Z,103692.19
2023-01-21T08:13:58.482Z,103699.19
2023-01-21T08:17:05.015Z,103695.19
2023-01-21T08:20:11.673Z,103708.38
2023-01-21T08:23:16.925Z,103705.75
2023-01-21T08:26:24.846Z,103701.69
2023-01-21T08:29:30.754Z,103701.25
2023-01-21T08:32:37.969Z,103710.63
2023-01-21T08:35:42.841Z,103703.31
2023-01-21T08:38:48.844Z,103705.41
2023-01-21T08:41:53.762Z,103685.31
2023-01-21T08:44:58.905Z,103704.53
2023-01-21T08:48:06.348Z,103704.84
2023-01-21T08:51:13.591Z,103708.56
2023-01-21T08:54:19.126Z,103728.13
2023-01-21T08:57:24.338Z,103737.03
2023-01-21T09:00:29.952Z,103729.31
2023-01-21T09:03:36.758Z,103750.56
2023-01-21T09:06:42.012Z,103733.56
2023-01-21T09:09:48.638Z,103737.34
2023-01-21T09:12:53.781Z,103736.34
2023-01-21T09:15:59.444Z,103744.22
2023-01-21T09:19:05.710Z,103757.25
2023-01-21T09:22:11.006Z,103768.34
2023-01-21T09:25:16.949Z,103768.53
2023-01-21T09:28:23.057Z,103773.66
2023-01-21T09:31:30.781Z,103777.63
2023-01-21T09:34:37.502Z,103785.38
2023-01-21T09:37:42.623Z,103789.25
2023-01-21T09:40:47.833Z,103789.47
2023-01-21T09:44:00.426Z,103801.72
2023-01-21T09:47:07.695Z,103800.09
2023-01-21T09:50:19.064Z,103811.00
2023-01-21T09:53:29.633Z,103808.84
2023-01-21T09:56:43.270Z,103811.13
2023-01-21T09:59:59.498Z,103822.84
2023-01-21T10:03:14.342Z,103815.28
2023-01-21T10:06:27.041Z,103820.50
2023-01-21T10:09:52.442Z,103834.59
2023-01-21T10:13:07.133Z,103817.97
2023-01-21T10:16:18.354Z,103823.63
2023-01-21T10:19:29.247Z,103826.22
2023-01-21T10:22:36.146Z,103803.75
2023-01-21T10:25:41.987Z,103803.16
2023-01-21T10:28:50.591Z,103795.72
2023-01-21T10:31:59.613Z,103794.47
2023-01-21T10:35:07.467Z,103798.81
2023-01-21T10:38:22.723Z,103797.88
2023-01-21T10:41:36.263Z,103799.53
2023-01-21T10:44:46.117Z,103793.69
2023-01-21T10:47:55.251Z,103799.97
2023-01-21T10:51:04.631Z,103784.59
2023-01-21T10:54:16.819Z,103804.50
2023-01-21T10:57:36.804Z,103794.72
2023-01-21T11:00:44.658Z,103791.22
2023-01-21T11:03:51.717Z,103787.31
2023-01-21T11:07:02.051Z,103782.88
2023-01-21T11:10:10.204Z,103788.34
2023-01-21T11:13:16.353Z,103779.97
2023-01-21T11:16:47.959Z,103789.94
2023-01-21T11:20:00.652Z,103798.75
2023-01-21T11:23:07.487Z,103796.91
2023-01-21T11:26:21.846Z,103794.47
2023-01-21T11:29:28.043Z,103792.31
2023-01-21T11:32:33.670Z,103792.31
2023-01-21T11:35:39.160Z,103799.97
2023-01-21T11:38:44.575Z,103798.81
2023-01-21T11:41:55.061Z,103809.72
2023-01-21T11:45:04.366Z,103810.25
2023-01-21T11:48:21.971Z,103803.56
2023-01-21T11:51:27.049Z,103805.75
2023-01-21T11:54:40.438Z,103790.91
2023-01-21T11:57:52.532Z,103793.97
2023-01-21T12:00:58.553Z,103795.97
2023-01-21T12:04:03.720Z,103799.09
2023-01-21T12:07:08.934Z,103795.75
2023-01-21T12:10:29.688Z,103810.28
2023-01-21T12:13:39.280Z,103801.69
2023-01-21T12:16:52.780Z,103797.34
2023-01-21T12:20:18.845Z,103812.66
2023-01-21T12:23:49.745Z,103819.81
2023-01-21T12:27:01.525Z,103810.63
2023-01-21T12:30:23.674Z,103813.56
2023-01-21T12:33:43.252Z,103825.53
2023-01-21T12:36:51.448Z,103824.88
2023-01-21T12:39:58.891Z,103826.41
2023-01-21T12:43:09.923Z,103823.25
2023-01-21T12:46:20.376Z,103833.25
2023-01-21T12:49:29.415Z,103829.91
2023-01-21T12:52:39.773Z,103817.69
2023-01-21T12:56:04.271Z,103818.91
2023-01-21T12:59:16.498Z,103808.53
2023-01-21T13:02:29.067Z,103798.72
2023-01-21T13:05:40.079Z,103807.84
2023-01-21T13:08:57.255Z,103800.75
2023-01-21T13:12:06.865Z,103805.69
2023-01-21T13:15:18.311Z,103804.28
2023-01-21T13:18:29.977Z,103799.34
2023-01-21T13:21:40.064Z,103792.69
2023-01-21T13:25:01.444Z,103796.84
2023-01-21T13:28:12.001Z,103791.38
2023-01-21T13:31:23.822Z,103794.09
2023-01-21T13:34:36.894Z,103798.59
2023-01-21T13:37:48.759Z,103786.69
2023-01-21T13:40:59.517Z,103783.66
2023-01-21T13:44:29.048Z,103787.69
2023-01-21T13:47:57.829Z,103780.56
2023-01-21T13:51:18.266Z,103795.78
2023-01-21T13:54:47.855Z,103792.31
2023-01-21T13:58:02.872Z,103799.47
2023-01-21T14:01:14.069Z,103809.16
2023-01-21T14:04:24.838Z,103808.50
2023-01-21T14:07:34.050Z,103811.59
2023-01-21T14:10:41.871Z,103812.38
2023-01-21T14:14:11.156Z,103823.06
2023-01-21T14:17:49.436Z,103835.84
2023-01-21T14:21:27.430Z,103844.81
2023-01-21T14:24:46.804Z,103845.28
2023-01-21T14:28:01.429Z,103850.66
2023-01-21T14:31:12.418Z,103859.19
2023-01-21T14:34:20.993Z,103870.16
2023-01-21T14:37:30.712Z,103859.13
2023-01-21T14:40:50.928Z,103859.38
2023-01-21T14:43:55.829Z,103860.63
2023-01-21T14:47:23.171Z,103862.44
2023-01-21T14:50:53.254Z,103855.88
2023-01-21T14:54:02.002Z,103863.22
2023-01-21T14:57:19.065Z,103869.41
2023-01-21T15:00:26.839Z,103870.75
2023-01-21T15:03:34.796Z,103870.72
2023-01-21T15:06:41.997Z,103881.66
2023-01-21T15:09:51.836Z,103896.22
2023-01-21T15:12:59.966Z,103888.78
2023-01-21T15:16:10.332Z,103888.31
2023-01-21T15:19:30.012Z,103886.38
2023-01-21T15:22:46.831Z,103893.72
2023-01-21T15:26:19.952Z,103898.94
2023-01-21T15:29:34.843Z,103911.97
2023-01-21T15:32:41.061Z,103911.69
2023-01-21T15:35:46.551Z,103920.19
2023-01-21T15:38:59.624Z,103919.81
2023-01-21T15:42:15.102Z,103922.13
2023-01-21T15:45:38.379Z,103938.75
2023-01-21T15:48:55.243Z,103932.78
2023-01-21T15:52:05.680Z,103937.84
2023-01-21T15:55:24.090Z,103947.16
2023-01-21T15:58:35.045Z,103938.28
2023-01-21T16:01:43.048Z,103946.97
2023-01-21T16:04:59.915Z,103951.03
2023-01-21T16:08:14.812Z,103949.28
2023-01-21T16:11:41.550Z,103954.13
2023-01-21T16:14:56.578Z,103950.94
2023-01-21T16:18:11.706Z,103944.16
2023-01-21T16:21:19.026Z,103945.44
2023-01-21T16:24:26.949Z,103943.81
2023-01-21T16:27:34.757Z,103944.84
2023-01-21T16:30:39.708Z,103955.50
2023-01-21T16:33:48.454Z,103969.91
2023-01-21T16:36:53.521Z,103974.53
2023-01-21T16:40:27.467Z,103963.25
2023-01-21T16:43:33.022Z,103968.94
2023-01-21T16:46:40.417Z,103972.47
2023-01-21T16:49:46.868Z,103973.44
2023-01-21T16:52:53.193Z,103977.09
2023-01-21T16:55:59.506Z,103976.16
2023-01-21T16:59:04.832Z,103977.50
2023-01-21T17:02:20.565Z,103980.00
2023-01-21T17:05:29.722Z,103979.44
2023-01-21T17:08:35.508Z,103985.28
2023-01-21T17:11:47.079Z,103990.22
2023-01-21T17:14:57.481Z,103977.59
2023-01-21T17:18:02.937Z,103979.84
2023-01-21T17:21:12.002Z,103988.97
2023-01-21T17:24:20.257Z,103985.59
2023-01-21T17:27:26.528Z,103995.66
2023-01-21T17:30:33.695Z,103994.00
2023-01-21T17:33:39.515Z,103986.84
2023-01-21T17:36:47.839Z,103986.41
2023-01-21T17:40:01.227Z,103989.66
2023-01-21T17:43:22.009Z,103982.09
2023-01-21T17:46:27.445Z,103997.84
2023-01-21T17:49:32.728Z,103996.16
2023-01-21T17:52:39.421Z,103999.19
2023-01-21T17:55:57.608Z,104006.56
2023-01-21T17:59:02.914Z,104000.72
2023-01-21T18:02:11.970Z,104014.50
2023-01-21T18:05:17.371Z,103998.41
2023-01-21T18:08:26.543Z,103989.66
2023-01-21T18:11:36.037Z,103989.75
2023-01-21T18:14:45.827Z,104001.38
2023-01-21T18:17:52.970Z,104001.16
2023-01-21T18:20:59.059Z,104000.38
2023-01-21T18:24:06.052Z,104008.50
2023-01-21T18:27:14.287Z,104000.16
2023-01-21T18:30:21.608Z,103999.19
2023-01-21T18:33:28.391Z,104009.38
2023-01-21T18:36:33.763Z,104008.47
2023-01-21T18:39:40.254Z,104017.75
2023-01-21T18:42:47.677Z,104003.66
2023-01-21T18:45:54.499Z,104005.41
2023-01-21T18:48:59.649Z,104006.34
2023-01-21T18:52:04.956Z,104011.13
2023-01-21T18:55:14.930Z,104014.00
2023-01-21T18:58:20.570Z,104018.16
2023-01-21T19:01:25.869Z,104027.34
2023-01-21T19:04:31.338Z,104019.72
2023-01-21T19:07:36.162Z,104030.44
2023-01-21T19:10:42.757Z,104030.22
2023-01-21T19:13:47.915Z,104037.28
2023-01-21T19:16:52.876Z,104037.06
2023-01-21T19:19:59.627Z,104031.09
2023-01-21T19:23:04.987Z,104043.66
2023-01-21T19:26:15.268Z,104049.63
2023-01-21T19:29:25.009Z,104044.41
2023-01-21T19:32:29.833Z,104038.41
2023-01-21T19:35:37.024Z,104046.66
2023-01-21T19:38:44.072Z,104052.63
2023-01-21T19:42:03.396Z,104050.53
2023-01-21T19:45:13.420Z,104055.41
2023-01-21T19:48:19.981Z,104057.44
2023-01-21T19:51:25.338Z,104055.25
2023-01-21T19:54:30.811Z,104055.38
2023-01-21T19:57:38.491Z,104054.06
2023-01-21T20:00:43.692Z,104061.16
2023-01-21T20:03:59.723Z,104059.78
2023-01-21T20:07:06.182Z,104046.53
2023-01-21T20:10:17.543Z,104060.06
2023-01-21T20:13:31.401Z,104056.06
2023-01-21T20:16:44.517Z,104058.22
2023-01-21T20:19:50.216Z,104056.69
2023-01-21T20:22:55.569Z,104066.00
2023-01-21T20:26:03.032Z,104060.97
2023-01-21T20:29:13.477Z,104059.97
2023-01-21T20:32:18.607Z,104063.56
2023-01-21T20:35:24.745Z,104059.22
2023-01-21T20:38:31.766Z,104056.63
2023-01-21T20:41:36.924Z,104050.69
2023-01-21T20:44:43.529Z,104042.75
2023-01-21T20:47:50.586Z,104062.38
2023-01-21T20:50:56.252Z,104060.31
2023-01-21T20:54:01.413Z,104058.16
2023-01-21T20:57:11.381Z,104059.31
2023-01-21T21:00:20.725Z,104065.31
2023-01-21T21:03:25.896Z,104050.72
2023-01-21T21:06:32.410Z,104061.19
2023-01-21T21:09:37.955Z,104066.34
2023-01-21T21:12:43.693Z,104062.28
2023-01-21T21:15:51.454Z,104057.50
2023-01-21T21:18:56.967Z,104052.34
2023-01-21T21:22:02.090Z,104058.59
2023-01-21T21:25:07.777Z,104062.06
2023-01-21T21:28:14.374Z,104063.91
2023-01-21T21:31:21.003Z,104084.28
2023-01-21T21:34:27.708Z,104077.13
2023-01-21T21:37:32.801Z,104081.13
2023-01-21T21:40:38.097Z,104087.63
2023-01-21T21:43:42.290Z,104083.78
2023-01-21T21:47:06.474Z,104088.44
2023-01-21T21:50:12.618Z,104093.91
2023-01-21T21:53:17.864Z,104091.91
2023-01-21T21:56:24.768Z,104080.53
2023-01-21T21:59:30.092Z,104083.28
2023-01-21T22:02:37.229Z,104087.00
2023-01-21T22:05:42.162Z,104089.72
2023-01-21T22:08:47.477Z,104085.34
2023-01-21T22:11:52.680Z,104093.25
2023-01-21T22:14:57.645Z,104091.50
2023-01-21T22:18:04.243Z,104101.97
2023-01-21T22:21:11.663Z,104099.34
2023-01-21T22:24:17.107Z,104103.03
2023-01-21T22:27:22.151Z,104116.53
2023-01-21T22:30:27.839Z,104110.00
2023-01-21T22:33:35.748Z,104119.16
2023-01-21T22:36:42.205Z,104118.28
2023-01-21T22:39:47.049Z,104108.06
2023-01-21T22:42:52.271Z,104113.09
2023-01-21T22:45:59.180Z,104116.81
2023-01-21T22:49:06.090Z,104117.69
2023-01-21T22:52:13.026Z,104124.56
2023-01-21T22:55:18.672Z,104121.78
2023-01-21T22:58:24.772Z,104122.03
2023-01-21T23:01:31.462Z,104112.28
2023-01-21T23:04:38.233Z,104120.00
2023-01-21T23:07:43.352Z,104118.22
2023-01-21T23:10:49.050Z,104119.41
2023-01-21T23:13:55.418Z,104118.09
2023-01-21T23:17:00.622Z,104117.69
2023-01-21T23:20:08.804Z,104115.53
2023-01-21T23:23:14.668Z,104111.41
2023-01-21T23:26:21.067Z,104121.81
2023-01-21T23:29:26.096Z,104113.53
2023-01-21T23:32:31.868Z,104112.88
2023-01-21T23:35:38.459Z,104113.97
2023-01-21T23:38:44.098Z,104114.47
2023-01-21T23:41:49.132Z,104119.72
2023-01-21T23:44:54.351Z,104121.84
2023-01-21T23:47:59.444Z,104121.38
2023-01-21T23:51:06.812Z,104110.59
2023-01-21T23:54:13.505Z,104116.47
2023-01-21T23:57:18.660Z,104116.13
